Time;durP1;ratioP1;P1;durP2;ratioP2;P2;SDS_P1;SDS_P2;PMS_P1;PMS_P2;Temp;Humidity;BMP_temperature;BMP_pressure;BME280_temperature;BME280_humidity;BME280_pressure;Samples;Min_cycle;Max_cycle;Signal;HPM_P1;HPM_P2
2021/09/03 00:01:34;;;;;;;4.53;1.85;;;23.50;93.60;;;;;;4965710;28;20042;-90
2021/09/03 00:04:03;;;;;;;3.92;1.98;;;23.50;93.50;;;;;;4967435;28;20122;-89
2021/09/03 00:06:32;;;;;;;2.85;1.60;;;23.50;93.30;;;;;;4965755;28;20041;-88
2021/09/03 00:09:00;;;;;;;2.03;1.52;;;23.60;92.90;;;;;;4968561;28;20046;-89
2021/09/03 00:11:28;;;;;;;2.45;1.75;;;23.60;92.70;;;;;;4970069;28;20598;-89
2021/09/03 00:13:58;;;;;;;5.63;2.28;;;23.70;92.40;;;;;;4966169;28;20046;-90
2021/09/03 00:16:42;;;;;;;4.35;1.90;;;23.60;92.60;;;;;;4966175;28;20046;-88
2021/09/03 00:19:10;;;;;;;2.00;1.42;;;23.60;92.90;;;;;;4951200;28;20065;-90
2021/09/03 00:21:38;;;;;;;3.25;1.60;;;23.60;93.10;;;;;;4971936;28;20461;-89
2021/09/03 00:24:06;;;;;;;1.95;1.55;;;23.60;93.20;;;;;;4960291;28;20035;-91
2021/09/03 00:26:34;;;;;;;3.67;1.70;;;23.70;93.30;;;;;;4974125;28;20133;-90
2021/09/03 00:29:05;;;;;;;3.08;1.70;;;23.60;93.70;;;;;;4969934;28;20523;-89
2021/09/03 00:31:35;;;;;;;2.10;1.48;;;23.60;93.80;;;;;;4953823;28;20367;-89
2021/09/03 00:34:04;;;;;;;3.40;1.40;;;23.50;94.50;;;;;;4968884;28;20043;-89
2021/09/03 00:36:33;;;;;;;4.22;1.48;;;23.50;94.90;;;;;;4980277;28;20042;-89
2021/09/03 00:39:01;;;;;;;1.98;1.27;;;23.40;95.30;;;;;;4973360;28;20059;-85
2021/09/03 00:41:54;;;;;;;2.88;1.13;;;23.40;95.50;;;;;;4972882;28;20047;-85
2021/09/03 00:44:24;;;;;;;2.15;1.35;;;23.30;95.90;;;;;;4970047;28;20046;-86
2021/09/03 00:47:10;;;;;;;1.95;1.20;;;23.30;96.10;;;;;;4951513;28;20105;-87
2021/09/03 00:49:39;;;;;;;4.00;1.25;;;23.30;96.10;;;;;;4966329;28;20074;-85
2021/09/03 00:52:08;;;;;;;2.20;1.40;;;23.30;96.00;;;;;;4968670;28;20066;-86
2021/09/03 00:54:37;;;;;;;1.90;1.20;;;23.40;95.80;;;;;;4952398;28;20058;-86
2021/09/03 00:57:07;;;;;;;2.88;1.55;;;23.30;95.70;;;;;;4977304;28;20050;-87
2021/09/03 00:59:37;;;;;;;2.63;1.60;;;23.10;96.70;;;;;;4967128;28;20058;-86
2021/09/03 01:03:01;;;;;;;2.75;1.55;;;23.00;96.70;;;;;;4968661;28;20527;-85
2021/09/03 01:05:30;;;;;;;2.08;1.50;;;22.90;96.70;;;;;;4968032;28;20065;-85
2021/09/03 01:07:58;;;;;;;4.63;1.50;;;23.00;96.70;;;;;;4968633;28;20039;-85
2021/09/03 01:10:26;;;;;;;2.72;1.80;;;23.10;96.70;;;;;;4985258;28;20097;-85
2021/09/03 01:13:44;;;;;;;2.72;1.70;;;23.10;96.70;;;;;;4967954;28;20125;-84
2021/09/03 01:16:14;;;;;;;2.07;1.57;;;23.00;96.70;;;;;;4978702;28;20062;-86
2021/09/03 01:18:56;;;;;;;5.07;2.40;;;23.00;96.70;;;;;;4965419;28;20047;-85
2021/09/03 01:21:24;;;;;;;2.47;1.77;;;23.00;96.70;;;;;;4966403;28;20569;-87
2021/09/03 01:24:22;;;;;;;3.53;1.58;;;22.80;96.70;;;;;;4967891;28;20038;-87
2021/09/03 01:26:52;;;;;;;2.70;1.67;;;22.80;96.70;;;;;;4965387;28;20047;-88
2021/09/03 01:29:21;;;;;;;3.92;1.65;;;22.90;96.70;;;;;;4968016;28;20055;-87
2021/09/03 01:31:49;;;;;;;3.00;1.67;;;22.90;96.70;;;;;;4975758;28;20035;-87
2021/09/03 01:34:18;;;;;;;2.22;1.55;;;22.80;96.70;;;;;;4956612;28;20047;-87
2021/09/03 01:36:46;;;;;;;1.88;1.48;;;22.80;96.70;;;;;;4970005;28;20093;-87
2021/09/03 01:39:15;;;;;;;3.40;1.60;;;22.70;96.70;;;;;;4976548;28;20154;-89
2021/09/03 01:42:06;;;;;;;2.55;1.70;;;22.70;96.60;;;;;;4965788;28;20044;-87
2021/09/03 01:44:34;;;;;;;3.05;1.58;;;22.70;96.20;;;;;;4967369;28;20053;-87
2021/09/03 01:47:24;;;;;;;2.35;1.35;;;22.70;96.00;;;;;;4966746;28;20031;-86
2021/09/03 01:49:52;;;;;;;3.13;1.75;;;22.70;95.90;;;;;;4927806;29;20040;-86
2021/09/03 01:52:20;;;;;;;2.72;1.63;;;22.70;96.00;;;;;;4927795;29;20139;-86
2021/09/03 01:54:48;;;;;;;2.05;1.48;;;22.70;95.90;;;;;;4944607;28;20055;-86
2021/09/03 02:01:25;;;;;;;1.42;1.25;;;22.90;95.20;;;;;;4928113;29;20139;-86
2021/09/03 02:03:56;;;;;;;2.53;1.35;;;22.80;95.10;;;;;;4922815;29;20071;-86
2021/09/03 02:06:25;;;;;;;4.13;2.05;;;22.80;94.80;;;;;;4928070;29;20126;-88
2021/09/03 02:09:14;;;;;;;1.75;1.27;;;22.90;94.70;;;;;;4922320;29;20753;-87
2021/09/03 02:11:43;;;;;;;2.55;1.50;;;22.90;94.70;;;;;;4940863;28;20090;-88
2021/09/03 02:14:29;;;;;;;2.55;1.35;;;22.90;94.40;;;;;;4931027;29;20075;-88
2021/09/03 02:17:00;;;;;;;2.40;1.70;;;22.80;94.40;;;;;;4926813;29;20055;-88
2021/09/03 02:19:28;;;;;;;2.25;1.80;;;22.80;94.30;;;;;;4931558;29;20036;-88
2021/09/03 02:21:57;;;;;;;1.63;1.50;;;22.80;94.40;;;;;;4922732;29;20035;-88
2021/09/03 02:24:26;;;;;;;2.25;1.73;;;22.80;94.10;;;;;;4947302;28;20044;-87
2021/09/03 02:26:55;;;;;;;2.42;1.50;;;22.80;94.10;;;;;;4931316;29;20506;-87
2021/09/03 02:29:25;;;;;;;2.90;1.65;;;22.70;93.70;;;;;;4932967;28;20048;-87
2021/09/03 02:32:43;;;;;;;2.72;1.98;;;22.60;93.80;;;;;;4928979;29;20115;-88
2021/09/03 02:35:20;;;;;;;1.80;1.63;;;22.60;93.40;;;;;;4920380;29;20056;-86
2021/09/03 02:37:49;;;;;;;3.47;1.88;;;22.70;93.00;;;;;;4927887;29;20342;-88
2021/09/03 02:40:18;;;;;;;2.10;1.67;;;22.60;92.80;;;;;;4942838;28;20055;-87
2021/09/03 02:42:47;;;;;;;1.42;1.17;;;22.60;92.70;;;;;;4931620;29;20062;-86
2021/09/03 02:45:17;;;;;;;4.90;1.70;;;22.60;92.60;;;;;;4941281;28;20418;-86
2021/09/03 02:47:46;;;;;;;2.72;1.63;;;22.60;92.70;;;;;;4954014;28;20052;-87
2021/09/03 02:50:17;;;;;;;2.90;1.70;;;22.60;92.70;;;;;;4982089;28;20138;-87
2021/09/03 02:52:46;;;;;;;2.38;1.60;;;22.60;92.80;;;;;;4966401;28;20105;-87
2021/09/03 02:55:16;;;;;;;1.88;1.67;;;22.60;92.90;;;;;;4961400;28;20244;-88
2021/09/03 02:57:46;;;;;;;4.18;1.75;;;22.50;93.20;;;;;;4965195;28;20055;-88
2021/09/03 03:00:17;;;;;;;3.38;2.03;;;22.50;93.30;;;;;;4982863;28;20134;-87
2021/09/03 03:03:17;;;;;;;3.72;2.03;;;22.50;93.30;;;;;;4967856;28;20051;-87
2021/09/03 03:05:47;;;;;;;2.75;1.52;;;22.40;93.80;;;;;;4965008;28;20047;-87
2021/09/03 03:08:16;;;;;;;2.65;1.58;;;22.40;93.90;;;;;;4949714;28;20154;-87
2021/09/03 03:10:45;;;;;;;2.85;1.70;;;22.40;93.80;;;;;;4966254;28;20066;-87
2021/09/03 03:13:20;;;;;;;1.80;1.50;;;22.30;93.70;;;;;;4965546;28;20047;-88
2021/09/03 03:15:49;;;;;;;3.53;1.90;;;22.40;93.60;;;;;;4960294;28;20064;-85
2021/09/03 03:18:17;;;;;;;2.55;1.70;;;22.20;93.80;;;;;;4943658;28;20043;-86
2021/09/03 03:20:49;;;;;;;3.95;2.08;;;22.20;93.90;;;;;;4960268;28;20041;-86
2021/09/03 03:23:18;;;;;;;2.70;1.73;;;22.30;93.90;;;;;;4952450;28;20057;-87
2021/09/03 03:25:46;;;;;;;3.22;2.00;;;22.20;94.20;;;;;;4971927;28;20065;-87
2021/09/03 03:28:15;;;;;;;2.20;1.90;;;22.10;94.60;;;;;;4964931;28;20057;-87
2021/09/03 03:30:44;;;;;;;2.78;1.58;;;22.00;95.30;;;;;;4972031;28;20052;-87
2021/09/03 03:37:01;;;;;;;7.40;1.77;;;22.00;95.40;;;;;;4963705;28;20073;-87
2021/09/03 03:39:29;;;;;;;2.20;1.67;;;22.00;95.70;;;;;;4969910;28;20046;-87
2021/09/03 03:41:57;;;;;;;5.35;2.10;;;21.90;95.70;;;;;;4961141;28;20054;-87
2021/09/03 03:44:26;;;;;;;2.67;1.80;;;22.00;95.60;;;;;;4974251;28;20037;-87
2021/09/03 03:46:55;;;;;;;3.50;1.73;;;21.90;95.70;;;;;;4957194;28;20051;-87
2021/09/03 03:49:38;;;;;;;2.55;2.00;;;22.00;95.40;;;;;;4982474;28;20137;-87
2021/09/03 03:52:08;;;;;;;3.55;1.60;;;22.00;95.20;;;;;;4956611;28;20043;-86
2021/09/03 03:54:36;;;;;;;2.03;1.52;;;22.00;95.30;;;;;;4962375;28;20085;-88
2021/09/03 03:57:05;;;;;;;2.92;1.67;;;22.00;95.30;;;;;;4958653;28;20039;-87
2021/09/03 04:00:22;;;;;;;2.67;1.80;;;21.90;95.60;;;;;;4967321;28;20047;-86
2021/09/03 04:02:51;;;;;;;5.47;1.90;;;21.80;96.00;;;;;;4945498;28;20058;-87
2021/09/03 04:05:41;;;;;;;3.50;2.00;;;21.70;96.60;;;;;;4978030;28;20301;-86
2021/09/03 04:08:11;;;;;;;2.25;1.95;;;21.60;96.70;;;;;;4970388;28;20256;-86
2021/09/03 04:10:39;;;;;;;2.05;1.80;;;21.70;96.70;;;;;;4973373;28;20062;-87
2021/09/03 04:13:08;;;;;;;3.03;1.73;;;21.70;96.70;;;;;;4972045;28;20548;-88
2021/09/03 04:15:36;;;;;;;2.40;2.10;;;21.70;96.70;;;;;;4960180;28;20093;-89
2021/09/03 04:21:54;;;;;;;3.20;2.00;;;21.50;96.70;;;;;;4964592;28;20042;-88
2021/09/03 04:24:24;;;;;;;3.22;2.08;;;21.50;96.70;;;;;;4967787;28;20051;-87
2021/09/03 04:26:52;;;;;;;2.97;1.70;;;21.40;96.70;;;;;;4961385;28;20058;-87
2021/09/03 04:29:20;;;;;;;2.53;2.10;;;21.40;96.70;;;;;;4968675;28;20409;-87
2021/09/03 04:31:49;;;;;;;5.35;1.88;;;21.50;96.70;;;;;;4963621;28;20027;-88
2021/09/03 04:34:17;;;;;;;4.97;2.13;;;21.40;96.70;;;;;;4964396;28;20043;-87
2021/09/03 04:36:45;;;;;;;6.97;2.33;;;21.40;96.70;;;;;;4963791;28;20054;-87
2021/09/03 04:39:14;;;;;;;4.35;2.10;;;21.30;96.70;;;;;;4965553;28;20039;-87
2021/09/03 04:41:43;;;;;;;5.13;2.40;;;21.40;96.70;;;;;;4968666;28;20045;-87
2021/09/03 04:44:11;;;;;;;4.82;2.05;;;21.40;96.70;;;;;;4959688;28;20091;-87
2021/09/03 04:46:40;;;;;;;3.75;1.83;;;21.20;96.70;;;;;;4966255;28;20043;-87
2021/09/03 04:49:08;;;;;;;2.88;1.70;;;21.20;96.70;;;;;;4895429;28;1486990;-88
2021/09/03 04:51:36;;;;;;;3.65;2.20;;;21.30;96.70;;;;;;4967582;28;20145;-89
2021/09/03 04:54:05;;;;;;;4.28;2.08;;;21.30;96.70;;;;;;4963900;28;20050;-87
2021/09/03 04:56:33;;;;;;;3.22;1.98;;;21.40;96.70;;;;;;4968035;28;20055;-86
2021/09/03 04:59:03;;;;;;;4.22;2.45;;;21.40;96.70;;;;;;4942783;28;20048;-87
2021/09/03 05:01:32;;;;;;;5.80;1.90;;;21.40;96.70;;;;;;4948019;28;20050;-87
2021/09/03 05:04:00;;;;;;;6.63;2.50;;;21.50;96.70;;;;;;4967989;28;20047;-87
2021/09/03 05:06:28;;;;;;;3.58;2.28;;;21.20;96.70;;;;;;4963831;28;20172;-89
2021/09/03 05:08:57;;;;;;;2.92;2.35;;;21.20;96.70;;;;;;4965847;28;20122;-88
2021/09/03 05:11:26;;;;;;;5.07;1.83;;;21.20;96.70;;;;;;4972520;28;20058;-87
2021/09/03 05:13:54;;;;;;;2.33;2.03;;;21.30;96.70;;;;;;4958873;28;20043;-88
2021/09/03 05:16:24;;;;;;;4.30;1.77;;;21.30;96.70;;;;;;4969515;28;20046;-88
2021/09/03 05:18:54;;;;;;;4.18;2.28;;;21.30;96.70;;;;;;4973904;28;20050;-89
2021/09/03 05:21:22;;;;;;;5.28;2.22;;;21.30;96.70;;;;;;4975002;28;20046;-88
2021/09/03 05:23:51;;;;;;;2.95;2.15;;;21.30;96.70;;;;;;4966404;28;20153;-87
2021/09/03 05:26:19;;;;;;;3.22;2.03;;;21.50;96.70;;;;;;4981683;28;20042;-86
2021/09/03 05:28:47;;;;;;;3.97;2.20;;;21.60;96.50;;;;;;4963056;28;20141;-88
2021/09/03 05:31:16;;;;;;;4.28;2.28;;;21.60;96.60;;;;;;4967598;28;20077;-88
2021/09/03 05:33:46;;;;;;;4.10;2.17;;;21.60;96.40;;;;;;4968542;28;20138;-89
2021/09/03 05:36:14;;;;;;;3.65;1.92;;;21.60;96.60;;;;;;4984166;28;20334;-89
2021/09/03 05:38:42;;;;;;;3.63;1.80;;;21.70;96.40;;;;;;4981802;28;20046;-88
2021/09/03 05:41:11;;;;;;;3.63;2.00;;;21.90;96.00;;;;;;4966801;28;20090;-87
2021/09/03 05:43:39;;;;;;;2.35;1.85;;;22.00;95.60;;;;;;4970338;28;20050;-88
2021/09/03 05:46:07;;;;;;;5.20;1.92;;;22.00;95.80;;;;;;4954524;28;20051;-87
2021/09/03 05:48:36;;;;;;;5.85;2.28;;;22.10;95.40;;;;;;4967072;28;20082;-87
2021/09/03 05:51:06;;;;;;;3.65;2.35;;;22.10;95.40;;;;;;4965446;28;20043;-88
2021/09/03 05:53:34;;;;;;;6.97;2.88;;;22.20;95.50;;;;;;4968546;28;20054;-89
2021/09/03 05:56:04;;;;;;;6.05;3.15;;;22.20;95.50;;;;;;4957507;28;20050;-85
2021/09/03 05:58:35;;;;;;;5.90;2.75;;;22.30;95.60;;;;;;4992775;28;20066;-84
2021/09/03 06:01:04;;;;;;;7.53;3.28;;;22.40;95.30;;;;;;4972168;28;20290;-91
2021/09/03 06:03:33;;;;;;;6.68;2.70;;;22.40;95.70;;;;;;4952271;28;20039;-88
2021/09/03 06:06:01;;;;;;;7.47;2.95;;;22.50;95.60;;;;;;4973428;28;20051;-92
2021/09/03 06:08:32;;;;;;;4.38;2.50;;;22.60;95.40;;;;;;4988537;28;20055;-92
2021/09/03 06:11:00;;;;;;;4.72;2.40;;;22.60;95.20;;;;;;4970733;28;20445;-90
2021/09/03 06:13:32;;;;;;;5.15;2.60;;;22.60;94.70;;;;;;4966298;28;20493;-90
2021/09/03 06:16:00;;;;;;;4.45;2.47;;;22.70;94.90;;;;;;4983445;28;20056;-89
2021/09/03 06:18:29;;;;;;;7.32;2.90;;;22.60;94.80;;;;;;4976041;28;20046;-89
2021/09/03 06:20:57;;;;;;;6.13;3.13;;;22.70;94.80;;;;;;4958026;28;20035;-88
2021/09/03 06:23:25;;;;;;;5.15;2.92;;;22.70;94.20;;;;;;4978096;28;20047;-90
2021/09/03 06:25:55;;;;;;;4.50;2.55;;;22.80;93.00;;;;;;4970903;28;20046;-90
2021/09/03 06:28:24;;;;;;;5.20;2.80;;;22.80;93.20;;;;;;4974198;28;20046;-90
2021/09/03 06:30:53;;;;;;;4.40;2.40;;;22.90;93.10;;;;;;4971082;28;20138;-86
2021/09/03 06:33:21;;;;;;;5.60;2.70;;;22.90;93.00;;;;;;4956612;28;20516;-90
2021/09/03 06:35:49;;;;;;;3.85;2.00;;;22.90;92.90;;;;;;4967051;28;20053;-88
2021/09/03 06:38:18;;;;;;;4.80;2.35;;;23.00;91.70;;;;;;4971369;28;20058;-91
2021/09/03 06:40:46;;;;;;;4.15;2.65;;;23.10;91.10;;;;;;4959766;28;20094;-91
2021/09/03 06:43:16;;;;;;;8.15;3.60;;;23.10;90.40;;;;;;4981655;28;20046;-88
2021/09/03 06:45:44;;;;;;;8.20;3.90;;;23.20;90.60;;;;;;4963058;28;20397;-90
2021/09/03 06:48:13;;;;;;;10.60;3.70;;;23.20;90.70;;;;;;4975309;28;20145;-88
2021/09/03 06:50:41;;;;;;;12.43;4.40;;;23.30;91.40;;;;;;4974685;28;20049;-89
2021/09/03 06:53:09;;;;;;;7.70;3.78;;;23.50;91.30;;;;;;4968964;28;20141;-88
2021/09/03 06:55:37;;;;;;;9.65;4.30;;;23.70;90.70;;;;;;4966038;28;20334;-87
2021/09/03 06:58:06;;;;;;;8.43;3.95;;;23.90;90.40;;;;;;4965123;28;20050;-87
2021/09/03 07:00:36;;;;;;;6.72;3.17;;;23.90;89.80;;;;;;4975285;28;20532;-88
2021/09/03 07:03:04;;;;;;;4.32;2.55;;;24.00;89.10;;;;;;4969393;28;20050;-87
2021/09/03 07:05:33;;;;;;;6.80;2.90;;;24.10;88.30;;;;;;4961654;28;20077;-89
2021/09/03 07:08:01;;;;;;;4.00;1.95;;;24.20;87.90;;;;;;4965126;28;20125;-87
2021/09/03 07:10:29;;;;;;;3.22;2.25;;;24.20;87.20;;;;;;4966214;28;20477;-91
2021/09/03 07:12:58;;;;;;;2.50;1.83;;;24.30;87.30;;;;;;4963889;28;20039;-93
2021/09/03 07:15:26;;;;;;;2.85;1.90;;;24.30;87.10;;;;;;4975035;28;20051;-92
2021/09/03 07:17:56;;;;;;;2.65;1.80;;;24.30;86.60;;;;;;4974060;28;20055;-93
2021/09/03 07:20:25;;;;;;;2.65;1.75;;;24.40;85.70;;;;;;4976179;28;20050;-90
2021/09/03 07:22:53;;;;;;;3.72;1.58;;;24.40;86.30;;;;;;4948197;28;20046;-87
2021/09/03 07:25:21;;;;;;;2.08;1.58;;;24.60;85.60;;;;;;4973253;28;20053;-88
2021/09/03 07:27:50;;;;;;;3.35;1.73;;;24.60;85.30;;;;;;4944525;28;20066;-91
2021/09/03 07:30:18;;;;;;;3.40;1.80;;;24.60;85.30;;;;;;4969234;28;20054;-88
2021/09/03 07:32:47;;;;;;;2.53;2.10;;;24.60;85.50;;;;;;4958412;28;20053;-88
2021/09/03 07:35:19;;;;;;;4.30;2.00;;;24.60;85.50;;;;;;4965871;28;20363;-90
2021/09/03 07:37:48;;;;;;;2.67;1.58;;;24.60;84.90;;;;;;4962893;28;20105;-88
2021/09/03 07:40:16;;;;;;;2.10;1.50;;;24.70;84.90;;;;;;4967486;28;20086;-88
2021/09/03 07:42:44;;;;;;;2.22;1.60;;;24.70;84.90;;;;;;4968957;28;20049;-88
2021/09/03 07:45:13;;;;;;;4.80;2.08;;;24.70;84.00;;;;;;4985265;28;20062;-89
2021/09/03 07:47:41;;;;;;;2.17;1.70;;;24.60;84.40;;;;;;4962055;28;20042;-88
2021/09/03 07:50:17;;;;;;;2.05;1.60;;;24.70;84.60;;;;;;4973741;28;20043;-89
2021/09/03 07:52:46;;;;;;;4.10;1.77;;;24.70;83.70;;;;;;4962169;28;20457;-88
2021/09/03 07:55:35;;;;;;;3.80;1.70;;;24.70;83.60;;;;;;4962037;28;20099;-89
2021/09/03 07:58:05;;;;;;;4.28;1.70;;;24.80;83.70;;;;;;4952131;28;20377;-88
2021/09/03 08:00:34;;;;;;;2.60;1.67;;;24.80;84.00;;;;;;4960392;28;20055;-88
2021/09/03 08:03:03;;;;;;;3.00;2.03;;;24.90;83.90;;;;;;4966675;28;20047;-91
2021/09/03 08:05:32;;;;;;;2.30;1.88;;;24.90;83.70;;;;;;4961303;28;20040;-88
2021/09/03 08:08:04;;;;;;;2.58;1.90;;;25.00;83.20;;;;;;4965203;28;20057;-88
2021/09/03 08:10:34;;;;;;;2.75;1.95;;;25.10;83.40;;;;;;4959903;28;20039;-87
2021/09/03 08:13:04;;;;;;;3.63;2.08;;;25.20;83.30;;;;;;4966555;28;20046;-90
2021/09/03 08:15:33;;;;;;;3.00;2.13;;;25.20;83.20;;;;;;4958855;28;20402;-88
2021/09/03 08:18:03;;;;;;;4.22;1.98;;;25.30;83.90;;;;;;4959744;28;20137;-88
2021/09/03 08:20:32;;;;;;;1.95;1.60;;;25.30;83.00;;;;;;4960746;28;20047;-86
2021/09/03 08:23:02;;;;;;;2.80;1.67;;;25.30;82.90;;;;;;4962372;28;20046;-86
2021/09/03 08:25:30;;;;;;;2.63;1.85;;;25.30;82.90;;;;;;4964883;28;20060;-88
2021/09/03 08:27:59;;;;;;;2.47;2.13;;;25.40;82.90;;;;;;4961450;28;20070;-93
2021/09/03 08:30:27;;;;;;;3.33;1.90;;;25.30;82.90;;;;;;4963897;28;20054;-92
2021/09/03 08:32:55;;;;;;;3.33;2.13;;;25.40;82.90;;;;;;4974076;28;20552;-91
2021/09/03 08:35:24;;;;;;;7.38;2.60;;;25.50;83.30;;;;;;4965138;28;20062;-92
2021/09/03 08:37:52;;;;;;;2.53;1.90;;;25.50;83.50;;;;;;4967819;28;20043;-90
2021/09/03 08:40:21;;;;;;;3.33;2.10;;;25.60;83.30;;;;;;4961436;28;20045;-93
2021/09/03 08:42:50;;;;;;;3.35;2.13;;;25.60;83.40;;;;;;4966610;28;20050;-92
2021/09/03 08:45:18;;;;;;;3.00;2.03;;;25.60;83.20;;;;;;4963915;28;20105;-91
2021/09/03 08:47:46;;;;;;;3.13;1.90;;;25.70;83.20;;;;;;4954775;28;20062;-91
2021/09/03 08:50:16;;;;;;;3.65;2.00;;;25.90;82.80;;;;;;4971068;28;20474;-90
2021/09/03 08:52:46;;;;;;;3.03;2.00;;;25.90;82.50;;;;;;4954172;28;20051;-90
2021/09/03 08:55:14;;;;;;;3.15;2.15;;;26.00;82.70;;;;;;4966746;28;20043;-93
2021/09/03 08:57:45;;;;;;;2.50;2.30;;;26.00;82.20;;;;;;4967653;28;20115;-91
2021/09/03 09:00:20;;;;;;;3.30;2.13;;;26.10;82.10;;;;;;4970001;28;20041;-91
2021/09/03 09:03:03;;;;;;;3.75;2.10;;;26.20;82.20;;;;;;4972124;28;20043;-86
2021/09/03 09:05:52;;;;;;;2.20;1.98;;;26.30;82.10;;;;;;4975564;28;20101;-88
2021/09/03 09:08:22;;;;;;;4.28;1.92;;;26.40;82.00;;;;;;4963351;28;20090;-88
2021/09/03 09:10:54;;;;;;;2.60;2.10;;;26.50;81.70;;;;;;4963507;28;20053;-88
2021/09/03 09:13:25;;;;;;;2.47;1.85;;;26.60;81.10;;;;;;4963751;28;20043;-88
2021/09/03 09:16:07;;;;;;;3.70;1.85;;;26.70;80.40;;;;;;4967586;28;20039;-89
2021/09/03 09:18:39;;;;;;;3.33;2.03;;;26.80;80.10;;;;;;4944803;28;20042;-88
2021/09/03 09:21:13;;;;;;;6.82;2.00;;;26.80;79.60;;;;;;4974393;28;20063;-88
2021/09/03 09:23:43;;;;;;;3.83;1.90;;;26.90;79.00;;;;;;4966151;28;20386;-89
2021/09/03 09:26:12;;;;;;;2.33;2.08;;;26.90;78.40;;;;;;4970335;28;20117;-92
2021/09/03 09:28:42;;;;;;;1.90;1.70;;;27.10;78.80;;;;;;4967174;28;20094;-90
2021/09/03 09:31:10;;;;;;;3.42;2.03;;;27.10;78.50;;;;;;4968799;28;20050;-92
2021/09/03 09:33:44;;;;;;;2.17;1.70;;;27.10;78.80;;;;;;4973208;28;20230;-90
2021/09/03 09:36:15;;;;;;;2.10;1.92;;;27.20;78.90;;;;;;4975628;28;20057;-89
2021/09/03 09:38:46;;;;;;;3.97;2.53;;;27.30;78.80;;;;;;4951196;28;20141;-86
2021/09/03 09:41:21;;;;;;;2.53;2.05;;;27.30;78.90;;;;;;4967378;28;20425;-87
2021/09/03 09:43:51;;;;;;;2.38;2.00;;;27.20;79.20;;;;;;4982569;28;20100;-89
2021/09/03 09:46:22;;;;;;;3.22;1.98;;;27.30;79.40;;;;;;4959298;28;20055;-90
2021/09/03 09:48:57;;;;;;;3.53;2.33;;;27.50;78.50;;;;;;4948406;28;20148;-87
2021/09/03 09:51:29;;;;;;;3.00;1.80;;;27.60;78.80;;;;;;4956490;28;20039;-88
2021/09/03 09:53:59;;;;;;;3.17;2.05;;;27.60;78.60;;;;;;4965018;28;20043;-90
2021/09/03 09:56:29;;;;;;;2.78;1.85;;;27.80;78.10;;;;;;4964795;28;20101;-88
2021/09/03 09:59:00;;;;;;;2.42;1.80;;;27.90;77.70;;;;;;4963122;28;20054;-85
2021/09/03 10:01:28;;;;;;;3.03;1.80;;;27.80;77.10;;;;;;4962016;28;20605;-84
2021/09/03 10:03:56;;;;;;;2.28;2.08;;;27.90;76.80;;;;;;4967366;28;20039;-85
2021/09/03 10:06:26;;;;;;;7.88;2.58;;;28.10;76.40;;;;;;4962551;28;20046;-85
2021/09/03 10:08:55;;;;;;;2.30;2.08;;;28.20;75.50;;;;;;4986377;28;20058;-87
2021/09/03 10:11:23;;;;;;;3.22;2.58;;;28.30;75.20;;;;;;4964943;28;20497;-87
2021/09/03 10:13:52;;;;;;;3.90;2.20;;;28.40;75.50;;;;;;4970872;28;20081;-87
2021/09/03 10:16:22;;;;;;;2.53;2.05;;;28.40;75.90;;;;;;4949235;28;20681;-88
2021/09/03 10:18:55;;;;;;;1.75;1.65;;;28.50;75.90;;;;;;4973371;28;20047;-88
2021/09/03 10:21:24;;;;;;;2.05;1.85;;;28.50;75.60;;;;;;4960366;28;20043;-85
2021/09/03 10:24:05;;;;;;;2.58;1.80;;;28.40;74.90;;;;;;4975060;28;20031;-87
2021/09/03 10:26:36;;;;;;;2.38;1.83;;;28.20;75.40;;;;;;4961284;28;20513;-86
2021/09/03 10:29:32;;;;;;;3.30;1.77;;;28.20;76.30;;;;;;4964331;28;20509;-86
2021/09/03 10:32:24;;;;;;;3.13;2.58;;;28.10;75.10;;;;;;4944910;28;20081;-87
2021/09/03 10:35:12;;;;;;;2.92;2.08;;;28.00;75.60;;;;;;4955412;28;20054;-79
2021/09/03 10:37:40;;;;;;;4.30;2.03;;;28.20;75.10;;;;;;4961328;28;20083;-78
2021/09/03 10:40:41;;;;;;;2.33;1.90;;;28.50;74.50;;;;;;4964460;28;20145;-79
2021/09/03 10:43:09;;;;;;;2.28;1.80;;;28.80;73.30;;;;;;4989328;28;20051;-78
2021/09/03 10:45:40;;;;;;;2.53;1.77;;;28.80;72.70;;;;;;4960605;28;20039;-79
2021/09/03 10:48:15;;;;;;;2.63;2.10;;;28.90;72.60;;;;;;4966390;28;20366;-79
2021/09/03 10:50:51;;;;;;;1.73;1.50;;;29.20;72.40;;;;;;4959741;28;20051;-80
2021/09/03 10:53:33;;;;;;;3.47;2.08;;;29.40;72.00;;;;;;4961975;28;20035;-80
2021/09/03 10:56:13;;;;;;;8.63;2.28;;;29.30;72.50;;;;;;4959968;28;20260;-80
2021/09/03 10:59:03;;;;;;;2.60;1.77;;;29.40;72.40;;;;;;4964945;28;20513;-83
2021/09/03 11:01:48;;;;;;;3.47;1.60;;;29.60;71.50;;;;;;4971655;28;20629;-79
2021/09/03 11:04:19;;;;;;;2.13;1.77;;;29.70;71.60;;;;;;4959675;28;20444;-83
2021/09/03 11:07:02;;;;;;;2.22;2.00;;;29.90;71.00;;;;;;4965036;28;20109;-83
2021/09/03 11:09:31;;;;;;;3.10;1.77;;;29.90;70.80;;;;;;4973221;28;20118;-81
2021/09/03 11:12:02;;;;;;;3.45;1.58;;;30.00;70.30;;;;;;4960529;28;20043;-80
2021/09/03 11:14:31;;;;;;;4.00;1.90;;;30.10;70.50;;;;;;4967167;28;20047;-82
2021/09/03 11:17:01;;;;;;;3.58;2.08;;;30.10;70.70;;;;;;4964386;28;20050;-82
2021/09/03 11:19:32;;;;;;;2.30;1.80;;;30.00;70.70;;;;;;4957481;28;20081;-82
2021/09/03 11:22:03;;;;;;;2.55;1.70;;;29.90;70.60;;;;;;4962671;28;20062;-83
2021/09/03 11:24:32;;;;;;;3.38;2.15;;;29.90;71.10;;;;;;4973540;28;20805;-87
2021/09/03 11:27:05;;;;;;;2.22;1.65;;;30.10;71.10;;;;;;4966018;28;20035;-87
2021/09/03 11:29:36;;;;;;;4.20;1.83;;;30.40;70.60;;;;;;4965342;28;20065;-88
2021/09/03 11:32:08;;;;;;;2.88;2.03;;;30.30;70.10;;;;;;4959692;28;20039;-87
2021/09/03 11:34:50;;;;;;;4.20;1.70;;;29.90;70.20;;;;;;4966313;28;20079;-87
2021/09/03 11:37:20;;;;;;;2.47;1.90;;;29.70;70.80;;;;;;4960878;28;20114;-88
2021/09/03 11:39:49;;;;;;;2.13;1.83;;;29.70;71.00;;;;;;4960691;28;20042;-87
2021/09/03 11:42:19;;;;;;;3.20;2.13;;;29.80;71.00;;;;;;4966944;28;20046;-89
2021/09/03 11:44:56;;;;;;;2.67;1.80;;;30.00;71.00;;;;;;4965589;28;20149;-87
2021/09/03 11:47:26;;;;;;;3.35;1.92;;;30.10;70.60;;;;;;4955909;28;20042;-87
2021/09/03 11:49:55;;;;;;;2.30;1.90;;;30.20;71.10;;;;;;4962670;28;20540;-88
2021/09/03 11:52:28;;;;;;;2.55;2.00;;;30.10;70.70;;;;;;4969478;28;20039;-87
2021/09/03 11:54:57;;;;;;;3.53;2.15;;;30.20;71.00;;;;;;4960014;28;20051;-88
2021/09/03 11:57:27;;;;;;;2.75;1.90;;;30.10;69.90;;;;;;4969617;28;20041;-89
2021/09/03 12:00:00;;;;;;;2.47;1.90;;;30.20;70.70;;;;;;4967884;28;20138;-88
2021/09/03 12:02:38;;;;;;;2.97;1.73;;;30.50;70.20;;;;;;4963461;28;20059;-88
2021/09/03 12:05:09;;;;;;;2.25;1.65;;;30.60;70.10;;;;;;4975812;28;20508;-88
2021/09/03 12:07:37;;;;;;;2.65;1.90;;;30.70;70.20;;;;;;4960562;28;20109;-87
2021/09/03 12:10:06;;;;;;;2.13;1.80;;;30.80;70.90;;;;;;4965994;28;20043;-89
2021/09/03 12:12:34;;;;;;;2.40;1.73;;;30.90;70.60;;;;;;4967663;28;20039;-88
2021/09/03 12:15:03;;;;;;;4.00;1.58;;;31.00;69.90;;;;;;4970680;28;20046;-87
2021/09/03 12:17:37;;;;;;;4.30;2.10;;;31.00;69.90;;;;;;4961119;28;20624;-88
2021/09/03 12:20:16;;;;;;;3.17;1.98;;;31.00;69.10;;;;;;4976694;28;20050;-87
2021/09/03 12:22:50;;;;;;;3.13;1.83;;;30.90;68.60;;;;;;4969119;28;20051;-88
2021/09/03 12:25:19;;;;;;;4.13;2.00;;;30.90;68.10;;;;;;4965791;28;20102;-88
2021/09/03 12:28:07;;;;;;;2.45;1.90;;;30.90;68.60;;;;;;4964465;28;20043;-88
2021/09/03 12:30:35;;;;;;;3.45;1.92;;;30.80;68.50;;;;;;4995317;28;20066;-88
2021/09/03 12:33:21;;;;;;;2.90;2.10;;;30.70;69.30;;;;;;4961396;28;20145;-89
2021/09/03 12:35:53;;;;;;;2.17;1.70;;;30.80;69.20;;;;;;4963853;28;20055;-89
2021/09/03 12:38:34;;;;;;;3.13;2.05;;;30.80;69.50;;;;;;4949597;28;20345;-87
2021/09/03 12:41:15;;;;;;;2.42;1.60;;;31.10;69.40;;;;;;4957812;28;20044;-86
2021/09/03 12:43:48;;;;;;;2.35;1.85;;;31.30;68.60;;;;;;4982915;28;20109;-79
2021/09/03 12:46:17;;;;;;;3.45;2.00;;;31.20;68.30;;;;;;4959798;28;20043;-88
2021/09/03 12:49:03;;;;;;;3.00;2.15;;;31.20;68.50;;;;;;4948007;28;20043;-85
2021/09/03 12:51:34;;;;;;;2.33;1.73;;;31.30;68.30;;;;;;4964664;28;20138;-82
2021/09/03 12:54:03;;;;;;;3.75;1.90;;;31.30;68.50;;;;;;4961267;28;20453;-83
2021/09/03 12:56:32;;;;;;;6.38;2.42;;;31.40;68.00;;;;;;4971617;28;20047;-87
2021/09/03 12:59:01;;;;;;;2.45;2.00;;;31.50;68.10;;;;;;4965199;28;20047;-84
2021/09/03 13:01:31;;;;;;;3.10;1.90;;;31.50;67.90;;;;;;4945801;28;20540;-88
2021/09/03 13:04:00;;;;;;;2.90;1.83;;;31.50;67.90;;;;;;4966842;28;20047;-89
2021/09/03 13:06:32;;;;;;;2.35;1.77;;;31.40;68.20;;;;;;4969367;28;20070;-93
2021/09/03 13:09:00;;;;;;;2.38;2.15;;;31.60;68.30;;;;;;4970507;28;20054;-90
2021/09/03 13:11:29;;;;;;;3.53;2.00;;;31.50;67.70;;;;;;4976658;28;20413;-88
2021/09/03 13:13:58;;;;;;;2.40;2.08;;;31.20;67.50;;;;;;4977450;28;20046;-87
2021/09/03 13:16:33;;;;;;;3.55;2.30;;;31.20;68.40;;;;;;4972810;28;20058;-90
2021/09/03 13:19:01;;;;;;;2.00;1.70;;;31.40;68.70;;;;;;4949270;28;20150;-88
2021/09/03 13:21:30;;;;;;;4.78;1.98;;;31.60;67.50;;;;;;4953712;28;20149;-90